createdAt,value
2024-01-20T00:01:25.645Z,99437.22
2024-01-20T00:04:13.735Z,99439.00
2024-01-20T00:07:01.392Z,99442.53
2024-01-20T00:09:51.766Z,99439.09
2024-01-20T00:12:41.865Z,99451.22
2024-01-20T00:15:30.714Z,99459.00
2024-01-20T00:18:18.489Z,99455.59
2024-01-20T00:21:06.731Z,99466.84
2024-01-20T00:23:54.490Z,99472.13
2024-01-20T00:26:44.071Z,99473.78
2024-01-20T00:29:32.083Z,99476.44
2024-01-20T00:32:20.117Z,99463.47
2024-01-20T00:35:08.736Z,99455.72
2024-01-20T00:37:56.983Z,99465.28
2024-01-20T00:40:44.704Z,99465.31
2024-01-20T00:43:33.490Z,99469.69
2024-01-20T00:46:20.835Z,99474.00
2024-01-20T00:49:08.303Z,99474.00
2024-01-20T00:51:55.952Z,99482.81
2024-01-20T00:54:43.624Z,99496.69
2024-01-20T00:57:31.718Z,99492.34
2024-01-20T01:00:22.879Z,99478.50
2024-01-20T01:03:10.693Z,99477.72
2024-01-20T01:05:58.574Z,99477.72
2024-01-20T01:08:46.342Z,99470.88
2024-01-20T01:11:33.937Z,99467.53
2024-01-20T01:14:21.692Z,99472.03
2024-01-20T01:17:10.984Z,99469.38
2024-01-20T01:19:59.246Z,99483.19
2024-01-20T01:22:46.815Z,99474.41
2024-01-20T01:25:34.479Z,99481.41
2024-01-20T01:28:22.180Z,99486.59
2024-01-20T01:31:10.688Z,99481.41
2024-01-20T01:33:59.412Z,99485.72
2024-01-20T01:36:46.893Z,99502.25
2024-01-20T01:39:34.291Z,99518.78
2024-01-20T01:42:22.009Z,99515.25
2024-01-20T01:45:10.990Z,99518.00
2024-01-20T01:47:59.302Z,99526.78
2024-01-20T01:50:49.751Z,99529.44
2024-01-20T01:53:38.480Z,99523.34
2024-01-20T01:56:28.423Z,99528.63
2024-01-20T01:59:17.489Z,99521.69
2024-01-20T02:02:05.128Z,99519.13
2024-01-20T02:04:53.056Z,99517.44
2024-01-20T02:07:44.621Z,99527.84
2024-01-20T02:10:33.263Z,99527.94
2024-01-20T02:13:22.797Z,99523.69
2024-01-20T02:16:10.486Z,99530.69
2024-01-20T02:19:04.385Z,99536.81
2024-01-20T02:21:52.308Z,99540.31
2024-01-20T02:24:48.348Z,99535.13
2024-01-20T02:27:36.063Z,99534.38
2024-01-20T02:30:23.663Z,99523.09
2024-01-20T02:33:11.561Z,99523.97
2024-01-20T02:35:59.186Z,99530.00
2024-01-20T02:38:46.631Z,99528.22
2024-01-20T02:41:35.445Z,99534.56
2024-01-20T02:44:23.826Z,99522.50
2024-01-20T02:47:11.142Z,99517.41
2024-01-20T02:49:58.798Z,99520.03
2024-01-20T02:52:46.612Z,99511.47
2024-01-20T02:55:34.573Z,99512.31
2024-01-20T02:58:23.526Z,99514.13
2024-01-20T03:01:11.331Z,99523.75
2024-01-20T03:03:59.097Z,99527.34
2024-01-20T03:06:47.190Z,99519.63
2024-01-20T03:09:34.967Z,99527.44
2024-01-20T03:12:22.657Z,99528.19
2024-01-20T03:15:12.236Z,99531.56
2024-01-20T03:17:59.908Z,99553.97
2024-01-20T03:20:47.657Z,99560.97
2024-01-20T03:23:35.880Z,99562.78
2024-01-20T03:26:24.377Z,99554.06
2024-01-20T03:29:11.917Z,99560.09
2024-01-20T03:32:00.824Z,99556.63
2024-01-20T03:34:48.619Z,99553.16
2024-01-20T03:37:36.233Z,99560.09
2024-01-20T03:40:24.143Z,99568.72
2024-01-20T03:43:12.091Z,99570.72
2024-01-20T03:46:00.142Z,99569.13
2024-01-20T03:48:49.428Z,99567.69
2024-01-20T03:51:37.107Z,99570.31
2024-01-20T03:54:24.832Z,99568.59
2024-01-20T03:57:13.010Z,99562.50
2024-01-20T04:00:00.682Z,99565.09
2024-01-20T04:02:48.603Z,99564.22
2024-01-20T04:05:38.191Z,99569.44
2024-01-20T04:08:25.962Z,99568.53
2024-01-20T04:11:13.664Z,99567.63
2024-01-20T04:14:01.401Z,99561.59
2024-01-20T04:16:49.757Z,99561.44
2024-01-20T04:19:37.370Z,99553.72
2024-01-20T04:22:26.182Z,99563.31
2024-01-20T04:25:14.994Z,99563.41
2024-01-20T04:28:02.852Z,99567.78
2024-01-20T04:30:51.750Z,99569.53
2024-01-20T04:33:40.675Z,99573.00
2024-01-20T04:36:31.531Z,99586.91
2024-01-20T04:39:20.426Z,99601.72
2024-01-20T04:42:08.700Z,99599.19
2024-01-20T04:44:56.356Z,99607.84
2024-01-20T04:47:43.928Z,99607.03
2024-01-20T04:50:32.097Z,99607.09
2024-01-20T04:53:19.722Z,99609.78
2024-01-20T04:56:08.953Z,99611.56
2024-01-20T04:58:57.715Z,99618.50
2024-01-20T05:01:46.414Z,99633.28
2024-01-20T05:04:34.061Z,99626.31
2024-01-20T05:07:21.596Z,99627.25
2024-01-20T05:10:10.109Z,99633.38
2024-01-20T05:12:59.231Z,99634.19
2024-01-20T05:15:46.851Z,99626.53
2024-01-20T05:18:34.603Z,99628.31
2024-01-20T05:21:23.391Z,99635.25
2024-01-20T05:24:11.359Z,99644.84
2024-01-20T05:26:58.857Z,99653.50
2024-01-20T05:29:47.837Z,99647.53
2024-01-20T05:32:35.613Z,99650.19
2024-01-20T05:35:23.520Z,99652.84
2024-01-20T05:38:11.084Z,99645.88
2024-01-20T05:40:58.672Z,99651.16
2024-01-20T05:43:46.205Z,99655.56
2024-01-20T05:46:35.234Z,99656.47
2024-01-20T05:49:22.928Z,99659.06
2024-01-20T05:52:11.501Z,99670.34
2024-01-20T05:54:59.351Z,99668.72
2024-01-20T05:57:46.913Z,99680.97
2024-01-20T06:00:34.753Z,99688.03
2024-01-20T06:03:26.690Z,99696.66
2024-01-20T06:06:14.805Z,99698.38
2024-01-20T06:09:03.840Z,99699.16
2024-01-20T06:11:51.823Z,99703.50
2024-01-20T06:14:39.918Z,99704.22
2024-01-20T06:17:27.659Z,99711.25
2024-01-20T06:20:17.591Z,99718.16
2024-01-20T06:23:05.608Z,99712.16
2024-01-20T06:25:54.558Z,99703.56
2024-01-20T06:28:44.235Z,99699.28
2024-01-20T06:31:31.934Z,99694.16
2024-01-20T06:34:19.886Z,99697.47
2024-01-20T06:37:09.603Z,99699.94
2024-01-20T06:39:57.455Z,99706.81
2024-01-20T06:42:45.139Z,99710.25
2024-01-20T06:45:34.797Z,99716.34
2024-01-20T06:48:22.790Z,99712.00
2024-01-20T06:51:16.445Z,99719.03
2024-01-20T06:54:06.772Z,99721.66
2024-01-20T06:56:54.256Z,99723.34
2024-01-20T06:59:41.660Z,99728.66
2024-01-20T07:02:31.467Z,99737.59
2024-01-20T07:05:19.448Z,99741.22
2024-01-20T07:08:07.699Z,99749.97
2024-01-20T07:10:56.452Z,99760.31
2024-01-20T07:13:45.033Z,99756.81
2024-01-20T07:16:33.160Z,99762.88
2024-01-20T07:19:20.876Z,99762.16
2024-01-20T07:22:09.483Z,99758.69
2024-01-20T07:24:56.968Z,99754.44
2024-01-20T07:27:45.846Z,99761.38
2024-01-20T07:30:33.740Z,99766.72
2024-01-20T07:33:21.693Z,99768.59
2024-01-20T07:36:09.629Z,99780.75
2024-01-20T07:38:57.252Z,99784.25
2024-01-20T07:41:44.845Z,99789.31
2024-01-20T07:44:35.131Z,99785.88
2024-01-20T07:47:22.858Z,99783.22
2024-01-20T07:50:10.918Z,99786.66
2024-01-20T07:52:58.900Z,99777.72
2024-01-20T07:55:46.332Z,99784.53
2024-01-20T07:58:33.801Z,99781.97
2024-01-20T08:01:23.434Z,99785.34
2024-01-20T08:04:11.624Z,99790.50
2024-01-20T08:06:59.145Z,99799.03
2024-01-20T08:09:47.335Z,99807.63
2024-01-20T08:12:35.206Z,99802.44
2024-01-20T08:15:23.900Z,99806.81
2024-01-20T08:18:13.237Z,99815.38
2024-01-20T08:21:00.798Z,99812.84
2024-01-20T08:23:48.459Z,99818.19
2024-01-20T08:26:36.020Z,99806.28
2024-01-20T08:29:23.591Z,99810.31
2024-01-20T08:32:11.651Z,99810.28
2024-01-20T08:35:00.676Z,99813.78
2024-01-20T08:37:48.325Z,99822.34
2024-01-20T08:40:36.174Z,99814.41
2024-01-20T08:43:23.933Z,99817.78
2024-01-20T08:46:13.282Z,99817.69
2024-01-20T08:49:04.944Z,99820.09
2024-01-20T08:51:55.762Z,99824.25
2024-01-20T08:54:43.918Z,99827.56
2024-01-20T08:57:33.576Z,99832.50
2024-01-20T09:00:22.428Z,99832.28
2024-01-20T09:03:09.987Z,99833.88
2024-01-20T09:05:57.919Z,99831.38
2024-01-20T09:08:46.885Z,99829.78
2024-01-20T09:11:34.942Z,99825.41
2024-01-20T09:14:22.472Z,99834.16
2024-01-20T09:17:10.391Z,99842.06
2024-01-20T09:19:58.180Z,99834.03
2024-01-20T09:22:46.101Z,99832.97
2024-01-20T09:25:35.128Z,99844.22
2024-01-20T09:28:22.600Z,99844.91
2024-01-20T09:31:10.162Z,99853.34
2024-01-20T09:33:57.788Z,99866.09
2024-01-20T09:36:46.454Z,99864.03
2024-01-20T09:39:34.238Z,99865.34
2024-01-20T09:42:23.777Z,99869.47
2024-01-20T09:45:12.547Z,99864.25
2024-01-20T09:48:00.391Z,99870.53
2024-01-20T09:50:50.187Z,99878.13
2024-01-20T09:53:38.105Z,99873.13
2024-01-20T09:56:26.484Z,99870.78
2024-01-20T09:59:17.105Z,99870.47
2024-01-20T10:02:05.775Z,99868.53
2024-01-20T10:05:00.097Z,99874.19
2024-01-20T10:07:47.698Z,99862.63
2024-01-20T10:10:35.750Z,99865.94
2024-01-20T10:13:23.430Z,99867.94
2024-01-20T10:16:12.315Z,99867.50
2024-01-20T10:18:59.805Z,99859.44
2024-01-20T10:21:50.965Z,99867.41
2024-01-20T10:24:48.479Z,99861.88
2024-01-20T10:27:36.413Z,99866.81
2024-01-20T10:30:26.172Z,99850.59
2024-01-20T10:33:15.782Z,99850.44
2024-01-20T10:36:06.264Z,99845.06
2024-01-20T10:38:55.965Z,99845.13
2024-01-20T10:41:49.566Z,99837.53
2024-01-20T10:44:40.919Z,99836.66
2024-01-20T10:47:37.555Z,99840.63
2024-01-20T10:50:27.392Z,99832.56
2024-01-20T10:53:15.307Z,99838.69
2024-01-20T10:56:08.147Z,99844.44
2024-01-20T10:59:05.996Z,99837.75
2024-01-20T11:01:54.053Z,99820.84
2024-01-20T11:04:45.927Z,99820.13
2024-01-20T11:07:38.718Z,99812.31
2024-01-20T11:10:27.108Z,99808.69
2024-01-20T11:13:17.307Z,99812.97
2024-01-20T11:16:05.480Z,99805.66
2024-01-20T11:18:53.012Z,99807.94
2024-01-20T11:21:41.020Z,99807.06
2024-01-20T11:24:48.801Z,99814.13
2024-01-20T11:27:47.455Z,99809.44
2024-01-20T11:30:37.552Z,99796.66
2024-01-20T11:33:26.461Z,99795.28
2024-01-20T11:36:15.738Z,99804.50
2024-01-20T11:39:07.042Z,99820.53
2024-01-20T11:42:04.670Z,99808.59
2024-01-20T11:44:53.757Z,99806.75
2024-01-20T11:47:42.182Z,99801.25
2024-01-20T11:50:30.157Z,99799.75
2024-01-20T11:53:18.392Z,99802.13
2024-01-20T11:56:06.609Z,99799.88
2024-01-20T11:58:55.468Z,99790.31
2024-01-20T12:01:43.440Z,99791.38
2024-01-20T12:04:31.283Z,99785.66
2024-01-20T12:07:19.952Z,99785.72
2024-01-20T12:10:08.622Z,99774.06
2024-01-20T12:12:56.340Z,99769.06
2024-01-20T12:15:45.183Z,99770.00
2024-01-20T12:18:34.229Z,99759.94
2024-01-20T12:21:21.939Z,99767.78
2024-01-20T12:24:11.642Z,99761.53
2024-01-20T12:26:59.376Z,99753.56
2024-01-20T12:29:47.156Z,99747.16
2024-01-20T12:32:36.058Z,99745.75
2024-01-20T12:35:23.889Z,99738.22
2024-01-20T12:38:11.717Z,99740.41
2024-01-20T12:40:59.270Z,99733.25
2024-01-20T12:43:49.985Z,99737.16
2024-01-20T12:46:37.865Z,99726.72
2024-01-20T12:49:27.035Z,99725.59
2024-01-20T12:52:14.873Z,99722.00
2024-01-20T12:55:05.394Z,99719.91
2024-01-20T12:57:53.032Z,99728.19
2024-01-20T13:00:40.554Z,99730.34
2024-01-20T13:03:29.795Z,99725.88
2024-01-20T13:06:19.347Z,99716.69
2024-01-20T13:09:10.070Z,99716.22
2024-01-20T13:11:57.701Z,99711.59
2024-01-20T13:14:45.141Z,99710.53
2024-01-20T13:17:32.764Z,99705.44
2024-01-20T13:20:20.944Z,99701.50
2024-01-20T13:23:12.905Z,99689.81
2024-01-20T13:26:01.965Z,99695.44
2024-01-20T13:28:50.792Z,99702.47
2024-01-20T13:31:38.365Z,99698.00
2024-01-20T13:34:27.118Z,99700.91
2024-01-20T13:37:15.012Z,99688.69
2024-01-20T13:40:06.297Z,99704.47
2024-01-20T13:42:54.208Z,99713.44
2024-01-20T13:45:43.900Z,99717.28
2024-01-20T13:48:31.763Z,99710.88
2024-01-20T13:51:20.510Z,99705.94
2024-01-20T13:54:08.700Z,99712.56
2024-01-20T13:56:58.244Z,99704.25
2024-01-20T13:59:45.695Z,99707.97
2024-01-20T14:02:33.354Z,99707.28
2024-01-20T14:05:21.076Z,99711.84
2024-01-20T14:08:08.638Z,99713.72
2024-01-20T14:10:56.115Z,99715.63
2024-01-20T14:13:45.201Z,99716.69
2024-01-20T14:16:32.900Z,99718.78
2024-01-20T14:19:20.927Z,99723.34
2024-01-20T14:22:11.837Z,99719.56
2024-01-20T14:25:02.130Z,99715.63
2024-01-20T14:27:50.680Z,99698.94
2024-01-20T14:30:42.065Z,99700.72
2024-01-20T14:33:30.664Z,99711.91
2024-01-20T14:36:18.439Z,99713.41
2024-01-20T14:39:06.157Z,99718.63
2024-01-20T14:41:54.131Z,99721.00
2024-01-20T14:44:42.441Z,99717.38
2024-01-20T14:47:31.749Z,99717.91
2024-01-20T14:50:20.245Z,99717.28
2024-01-20T14:53:08.033Z,99718.19
2024-01-20T14:55:55.565Z,99716.63
2024-01-20T14:58:43.172Z,99720.31
2024-01-20T15:01:31.118Z,99715.22
2024-01-20T15:04:20.347Z,99721.50
2024-01-20T15:07:08.207Z,99728.91
2024-01-20T15:09:55.943Z,99725.78
2024-01-20T15:12:43.689Z,99723.75
2024-01-20T15:15:31.296Z,99729.44
2024-01-20T15:18:18.989Z,99729.91
2024-01-20T15:21:08.393Z,99733.94
2024-01-20T15:23:55.769Z,99735.38
2024-01-20T15:26:43.229Z,99738.47
2024-01-20T15:29:32.116Z,99738.13
2024-01-20T15:32:19.879Z,99735.94
2024-01-20T15:35:08.771Z,99734.72
2024-01-20T15:37:57.756Z,99736.06
2024-01-20T15:40:45.977Z,99739.13
2024-01-20T15:43:33.741Z,99740.44
2024-01-20T15:46:21.318Z,99745.22
2024-01-20T15:49:08.996Z,99754.31
2024-01-20T15:51:56.713Z,99760.88
2024-01-20T15:54:49.014Z,99763.09
2024-01-20T15:57:37.359Z,99761.78
2024-01-20T16:00:25.873Z,99763.09
2024-01-20T16:03:13.513Z,99773.09
2024-01-20T16:06:01.852Z,99772.63
2024-01-20T16:08:57.586Z,99776.44
2024-01-20T16:11:51.550Z,99773.34
2024-01-20T16:14:39.073Z,99781.56
2024-01-20T16:17:26.555Z,99793.16
2024-01-20T16:20:14.967Z,99802.13
2024-01-20T16:23:02.656Z,99805.00
2024-01-20T16:25:50.362Z,99807.97
2024-01-20T16:28:39.132Z,99810.13
2024-01-20T16:31:27.038Z,99810.34
2024-01-20T16:34:15.555Z,99810.56
2024-01-20T16:37:03.315Z,99818.63
2024-01-20T16:39:51.736Z,99817.25
2024-01-20T16:42:39.520Z,99817.59
2024-01-20T16:45:28.714Z,99823.00
2024-01-20T16:48:16.362Z,99828.38
2024-01-20T16:51:12.666Z,99815.53
2024-01-20T16:54:06.741Z,99821.91
2024-01-20T16:56:54.653Z,99827.34
2024-01-20T16:59:42.465Z,99830.13
2024-01-20T17:02:31.553Z,99829.41
2024-01-20T17:05:19.518Z,99832.13
2024-01-20T17:08:08.082Z,99831.38
2024-01-20T17:10:56.170Z,99827.13
2024-01-20T17:13:44.893Z,99831.63
2024-01-20T17:16:37.053Z,99834.41
2024-01-20T17:19:31.797Z,99832.84
2024-01-20T17:22:19.477Z,99834.78
2024-01-20T17:25:09.056Z,99836.66
2024-01-20T17:27:56.596Z,99836.81
2024-01-20T17:30:43.976Z,99843.97
2024-01-20T17:33:31.627Z,99840.66
2024-01-20T17:36:21.053Z,99836.50
2024-01-20T17:39:10.702Z,99830.53
2024-01-20T17:41:58.813Z,99825.50
2024-01-20T17:44:47.430Z,99829.91
2024-01-20T17:47:35.687Z,99846.47
2024-01-20T17:50:23.582Z,99843.09
2024-01-20T17:53:15.081Z,99844.91
2024-01-20T17:56:04.291Z,99838.91
2024-01-20T17:58:51.998Z,99844.13
2024-01-20T18:01:39.492Z,99845.03
2024-01-20T18:04:27.156Z,99852.94
2024-01-20T18:07:15.068Z,99857.34
2024-01-20T18:10:04.147Z,99851.47
2024-01-20T18:12:51.925Z,99852.44
2024-01-20T18:15:39.662Z,99848.34
2024-01-20T18:18:27.658Z,99845.94
2024-01-20T18:21:16.696Z,99859.06
2024-01-20T18:24:05.338Z,99854.00
2024-01-20T18:26:54.232Z,99851.44
2024-01-20T18:29:42.027Z,99848.00
2024-01-20T18:32:29.853Z,99854.16
2024-01-20T18:35:17.710Z,99855.09
2024-01-20T18:38:05.757Z,99852.53
2024-01-20T18:40:53.243Z,99856.94
2024-01-20T18:43:42.142Z,99861.38
2024-01-20T18:46:29.908Z,99862.25
2024-01-20T18:49:17.616Z,99866.69
2024-01-20T18:52:05.771Z,99855.53
2024-01-20T18:54:54.986Z,99860.78
2024-01-20T18:57:42.560Z,99862.59
2024-01-20T19:00:31.569Z,99857.50
2024-01-20T19:03:19.837Z,99865.34
2024-01-20T19:06:08.077Z,99874.06
2024-01-20T19:08:55.924Z,99860.31
2024-01-20T19:11:43.283Z,99873.28
2024-01-20T19:14:31.193Z,99868.16
2024-01-20T19:17:21.170Z,99868.19
2024-01-20T19:20:11.590Z,99861.34
2024-01-20T19:22:59.239Z,99869.16
2024-01-20T19:25:46.599Z,99877.00
2024-01-20T19:28:34.344Z,99875.28
2024-01-20T19:31:22.461Z,99869.28
2024-01-20T19:34:11.760Z,99868.47
2024-01-20T19:36:59.549Z,99868.53
2024-01-20T19:39:47.575Z,99866.84
2024-01-20T19:42:35.425Z,99872.06
2024-01-20T19:45:23.064Z,99870.38
2024-01-20T19:48:11.001Z,99873.91
2024-01-20T19:51:00.207Z,99872.22
2024-01-20T19:53:47.877Z,99867.13
2024-01-20T19:56:35.407Z,99873.16
2024-01-20T19:59:22.969Z,99869.78
2024-01-20T20:02:12.314Z,99870.72
2024-01-20T20:05:00.116Z,99862.97
2024-01-20T20:07:49.112Z,99864.72
2024-01-20T20:10:36.568Z,99871.66
2024-01-20T20:13:25.033Z,99858.75
2024-01-20T20:16:12.677Z,99857.91
2024-01-20T20:19:00.275Z,99865.69
2024-01-20T20:21:47.827Z,99862.25
2024-01-20T20:24:39.245Z,99856.31
2024-01-20T20:27:26.965Z,99855.47
2024-01-20T20:30:15.040Z,99863.34
2024-01-20T20:33:02.983Z,99864.22
2024-01-20T20:35:50.665Z,99866.81
2024-01-20T20:38:38.316Z,99858.19
2024-01-20T20:41:27.297Z,99863.41
2024-01-20T20:44:14.803Z,99859.16
2024-01-20T20:47:02.431Z,99862.66
2024-01-20T20:49:51.491Z,99862.69
2024-01-20T20:52:39.991Z,99861.84
2024-01-20T20:55:28.702Z,99859.28
2024-01-20T20:58:17.482Z,99862.78
2024-01-20T21:01:05.574Z,99857.63
2024-01-20T21:03:53.564Z,99850.78
2024-01-20T21:06:41.933Z,99859.44
2024-01-20T21:09:29.929Z,99860.31
2024-01-20T21:12:17.749Z,99860.34
2024-01-20T21:15:07.479Z,99844.88
2024-01-20T21:17:57.601Z,99845.75
2024-01-20T21:20:48.097Z,99838.00
2024-01-20T21:23:35.668Z,99838.91
2024-01-20T21:26:23.739Z,99842.41
2024-01-20T21:29:11.405Z,99838.97
2024-01-20T21:32:00.424Z,99835.53
2024-01-20T21:34:48.153Z,99828.69
2024-01-20T21:37:35.970Z,99830.44
2024-01-20T21:40:23.863Z,99823.56
2024-01-20T21:43:11.401Z,99825.31
2024-01-20T21:45:59.337Z,99821.00
2024-01-20T21:48:48.409Z,99820.19
2024-01-20T21:51:36.029Z,99818.44
2024-01-20T21:54:23.535Z,99814.16
2024-01-20T21:57:11.122Z,99811.59
2024-01-20T21:59:59.011Z,99813.31
2024-01-20T22:02:46.362Z,99810.72
2024-01-20T22:05:35.204Z,99810.75
2024-01-20T22:08:23.358Z,99815.13
2024-01-20T22:11:11.138Z,99812.56
2024-01-20T22:13:58.831Z,99813.44
2024-01-20T22:16:46.351Z,99814.31
2024-01-20T22:19:34.454Z,99824.69
2024-01-20T22:22:24.373Z,99818.69
2024-01-20T22:25:12.605Z,99823.00
2024-01-20T22:28:00.402Z,99818.72
2024-01-20T22:30:48.260Z,99815.28
2024-01-20T22:33:35.902Z,99820.47
2024-01-20T22:36:23.633Z,99827.41
2024-01-20T22:39:14.426Z,99834.28
2024-01-20T22:42:02.326Z,99830.00
2024-01-20T22:44:50.105Z,99830.84
2024-01-20T22:47:37.971Z,99820.53
2024-01-20T22:50:26.116Z,99811.94
2024-01-20T22:53:13.807Z,99817.97
2024-01-20T22:56:02.762Z,99816.25
2024-01-20T22:58:50.287Z,99818.84
2024-01-20T23:01:38.289Z,99811.13
2024-01-20T23:04:26.612Z,99816.31
2024-01-20T23:07:14.228Z,99824.06
2024-01-20T23:10:01.920Z,99809.47
2024-01-20T23:12:51.109Z,99810.34
2024-01-20T23:15:39.013Z,99812.03
2024-01-20T23:18:27.038Z,99818.94
2024-01-20T23:21:15.119Z,99814.66
2024-01-20T23:24:02.861Z,99815.56
2024-01-20T23:26:51.127Z,99813.88
2024-01-20T23:29:40.274Z,99810.41
2024-01-20T23:32:28.256Z,99813.03
2024-01-20T23:35:15.713Z,99807.00
2024-01-20T23:38:03.722Z,99803.59
2024-01-20T23:40:51.560Z,99789.81
2024-01-20T23:43:38.965Z,99792.41
2024-01-20T23:46:27.801Z,99789.00
2024-01-20T23:49:15.449Z,99789.84
2024-01-20T23:52:03.678Z,99792.44
2024-01-20T23:54:51.281Z,99791.63
2024-01-20T23:57:40.362Z,99791.63
